sensor_id;sensor_type;location;lat;lon;timestamp;temperature;humidity
23301;DHT22;11819;51.394;12.340;2022-10-16T00:01:35;16.60;89.50
23301;DHT22;11819;51.394;12.340;2022-10-16T00:04:01;16.60;89.50
23301;DHT22;11819;51.394;12.340;2022-10-16T00:06:29;16.50;89.40
23301;DHT22;11819;51.394;12.340;2022-10-16T00:08:56;16.50;89.60
23301;DHT22;11819;51.394;12.340;2022-10-16T00:11:41;16.50;89.40
23301;DHT22;11819;51.394;12.340;2022-10-16T00:14:10;16.50;89.40
23301;DHT22;11819;51.394;12.340;2022-10-16T00:16:36;16.50;89.40
23301;DHT22;11819;51.394;12.340;2022-10-16T00:19:02;16.40;89.30
23301;DHT22;11819;51.394;12.340;2022-10-16T00:21:30;16.40;89.40
23301;DHT22;11819;51.394;12.340;2022-10-16T00:24:02;16.40;89.50
23301;DHT22;11819;51.394;12.340;2022-10-16T00:26:29;16.40;89.50
23301;DHT22;11819;51.394;12.340;2022-10-16T00:28:55;16.40;89.60
23301;DHT22;11819;51.394;12.340;2022-10-16T00:31:22;16.40;89.70
23301;DHT22;11819;51.394;12.340;2022-10-16T00:33:48;16.40;89.80
23301;DHT22;11819;51.394;12.340;2022-10-16T00:36:17;16.40;89.90
23301;DHT22;11819;51.394;12.340;2022-10-16T00:38:43;16.40;90.00
23301;DHT22;11819;51.394;12.340;2022-10-16T00:41:12;16.40;90.00
23301;DHT22;11819;51.394;12.340;2022-10-16T00:46:10;16.40;90.00
23301;DHT22;11819;51.394;12.340;2022-10-16T00:48:36;16.40;90.00
23301;DHT22;11819;51.394;12.340;2022-10-16T00:51:02;16.40;90.00
23301;DHT22;11819;51.394;12.340;2022-10-16T00:53:30;16.40;90.00
23301;DHT22;11819;51.394;12.340;2022-10-16T00:55:56;16.40;90.00
23301;DHT22;11819;51.394;12.340;2022-10-16T00:58:22;16.40;90.00
23301;DHT22;11819;51.394;12.340;2022-10-16T01:00:47;16.40;90.10
23301;DHT22;11819;51.394;12.340;2022-10-16T01:03:34;16.40;90.10
23301;DHT22;11819;51.394;12.340;2022-10-16T01:06:15;16.40;90.20
23301;DHT22;11819;51.394;12.340;2022-10-16T01:14:32;16.40;90.30
23301;DHT22;11819;51.394;12.340;2022-10-16T01:17:34;16.30;90.40
23301;DHT22;11819;51.394;12.340;2022-10-16T01:28:49;16.30;90.70
23301;DHT22;11819;51.394;12.340;2022-10-16T01:31:19;16.30;90.70
23301;DHT22;11819;51.394;12.340;2022-10-16T01:33:54;16.30;90.70
23301;DHT22;11819;51.394;12.340;2022-10-16T01:36:25;16.30;90.70
23301;DHT22;11819;51.394;12.340;2022-10-16T01:38:54;16.30;90.60
23301;DHT22;11819;51.394;12.340;2022-10-16T01:41:26;16.30;90.60
23301;DHT22;11819;51.394;12.340;2022-10-16T01:44:04;16.30;90.60
23301;DHT22;11819;51.394;12.340;2022-10-16T01:46:32;16.30;90.70
23301;DHT22;11819;51.394;12.340;2022-10-16T01:49:02;16.30;90.70
23301;DHT22;11819;51.394;12.340;2022-10-16T01:51:29;16.30;90.80
23301;DHT22;11819;51.394;12.340;2022-10-16T01:53:57;16.20;90.80
23301;DHT22;11819;51.394;12.340;2022-10-16T01:56:25;16.20;90.80
23301;DHT22;11819;51.394;12.340;2022-10-16T01:59:02;16.20;90.80
23301;DHT22;11819;51.394;12.340;2022-10-16T02:01:31;16.20;90.80
23301;DHT22;11819;51.394;12.340;2022-10-16T02:04:03;16.10;90.80
23301;DHT22;11819;51.394;12.340;2022-10-16T02:06:29;16.20;90.90
23301;DHT22;11819;51.394;12.340;2022-10-16T02:08:55;16.10;90.80
23301;DHT22;11819;51.394;12.340;2022-10-16T02:11:21;16.10;90.80
23301;DHT22;11819;51.394;12.340;2022-10-16T02:13:53;16.10;90.80
23301;DHT22;11819;51.394;12.340;2022-10-16T02:16:20;16.10;90.80
23301;DHT22;11819;51.394;12.340;2022-10-16T02:18:46;16.00;90.80
23301;DHT22;11819;51.394;12.340;2022-10-16T02:21:32;16.00;90.80
23301;DHT22;11819;51.394;12.340;2022-10-16T02:24:11;16.00;90.80
23301;DHT22;11819;51.394;12.340;2022-10-16T02:29:18;16.00;90.80
23301;DHT22;11819;51.394;12.340;2022-10-16T02:31:49;15.90;90.80
23301;DHT22;11819;51.394;12.340;2022-10-16T02:34:18;15.90;90.80
23301;DHT22;11819;51.394;12.340;2022-10-16T02:36:46;15.90;90.80
23301;DHT22;11819;51.394;12.340;2022-10-16T02:39:13;15.90;90.80
23301;DHT22;11819;51.394;12.340;2022-10-16T02:41:39;15.90;90.90
23301;DHT22;11819;51.394;12.340;2022-10-16T02:44:05;15.90;90.90
23301;DHT22;11819;51.394;12.340;2022-10-16T02:46:31;15.90;90.90
23301;DHT22;11819;51.394;12.340;2022-10-16T02:48:56;15.90;90.90
23301;DHT22;11819;51.394;12.340;2022-10-16T02:51:22;15.90;90.90
23301;DHT22;11819;51.394;12.340;2022-10-16T02:53:47;15.90;91.00
23301;DHT22;11819;51.394;12.340;2022-10-16T02:56:13;16.00;91.00
23301;DHT22;11819;51.394;12.340;2022-10-16T02:58:39;16.00;91.00
23301;DHT22;11819;51.394;12.340;2022-10-16T03:01:04;16.00;91.00
23301;DHT22;11819;51.394;12.340;2022-10-16T03:03:30;16.00;91.00
23301;DHT22;11819;51.394;12.340;2022-10-16T03:05:56;16.10;91.00
23301;DHT22;11819;51.394;12.340;2022-10-16T03:08:21;16.10;91.00
23301;DHT22;11819;51.394;12.340;2022-10-16T03:10:49;16.10;91.00
23301;DHT22;11819;51.394;12.340;2022-10-16T03:13:15;16.00;91.00
23301;DHT22;11819;51.394;12.340;2022-10-16T03:15:41;16.00;90.90
23301;DHT22;11819;51.394;12.340;2022-10-16T03:18:06;16.00;90.90
23301;DHT22;11819;51.394;12.340;2022-10-16T03:20:32;16.00;91.00
23301;DHT22;11819;51.394;12.340;2022-10-16T03:22:58;15.90;90.90
23301;DHT22;11819;51.394;12.340;2022-10-16T03:25:23;15.90;91.00
23301;DHT22;11819;51.394;12.340;2022-10-16T03:27:49;15.90;91.00
23301;DHT22;11819;51.394;12.340;2022-10-16T03:30:15;15.80;91.00
23301;DHT22;11819;51.394;12.340;2022-10-16T03:32:43;15.80;91.00
23301;DHT22;11819;51.394;12.340;2022-10-16T03:35:09;15.80;91.00
23301;DHT22;11819;51.394;12.340;2022-10-16T03:37:34;15.80;91.00
23301;DHT22;11819;51.394;12.340;2022-10-16T03:40:00;15.70;91.10
23301;DHT22;11819;51.394;12.340;2022-10-16T03:42:26;15.70;91.10
23301;DHT22;11819;51.394;12.340;2022-10-16T03:44:52;15.70;91.10
23301;DHT22;11819;51.394;12.340;2022-10-16T03:47:17;15.80;91.10
23301;DHT22;11819;51.394;12.340;2022-10-16T03:49:47;15.80;91.10
23301;DHT22;11819;51.394;12.340;2022-10-16T03:52:13;15.80;91.10
23301;DHT22;11819;51.394;12.340;2022-10-16T03:54:38;15.70;91.10
23301;DHT22;11819;51.394;12.340;2022-10-16T03:57:04;15.70;91.10
23301;DHT22;11819;51.394;12.340;2022-10-16T03:59:30;15.70;91.10
23301;DHT22;11819;51.394;12.340;2022-10-16T04:01:56;15.70;91.10
23301;DHT22;11819;51.394;12.340;2022-10-16T04:04:21;15.70;91.10
23301;DHT22;11819;51.394;12.340;2022-10-16T04:06:47;15.70;91.10
23301;DHT22;11819;51.394;12.340;2022-10-16T04:09:13;15.70;91.10
23301;DHT22;11819;51.394;12.340;2022-10-16T04:11:38;15.70;91.20
23301;DHT22;11819;51.394;12.340;2022-10-16T04:14:04;15.60;91.10
23301;DHT22;11819;51.394;12.340;2022-10-16T04:16:30;15.60;91.10
23301;DHT22;11819;51.394;12.340;2022-10-16T04:18:55;15.60;91.10
23301;DHT22;11819;51.394;12.340;2022-10-16T04:21:21;15.60;91.20
23301;DHT22;11819;51.394;12.340;2022-10-16T04:23:48;15.60;91.20
23301;DHT22;11819;51.394;12.340;2022-10-16T04:26:14;15.60;91.20
23301;DHT22;11819;51.394;12.340;2022-10-16T04:28:39;15.60;91.20
23301;DHT22;11819;51.394;12.340;2022-10-16T04:31:06;15.60;91.20
23301;DHT22;11819;51.394;12.340;2022-10-16T04:33:32;15.60;91.20
23301;DHT22;11819;51.394;12.340;2022-10-16T04:35:59;15.60;91.20
23301;DHT22;11819;51.394;12.340;2022-10-16T04:38:25;15.60;91.20
23301;DHT22;11819;51.394;12.340;2022-10-16T04:40:52;15.60;91.30
23301;DHT22;11819;51.394;12.340;2022-10-16T04:43:18;15.60;91.40
23301;DHT22;11819;51.394;12.340;2022-10-16T04:45:43;15.60;91.30
23301;DHT22;11819;51.394;12.340;2022-10-16T04:48:09;15.60;91.40
23301;DHT22;11819;51.394;12.340;2022-10-16T04:50:35;15.70;91.40
23301;DHT22;11819;51.394;12.340;2022-10-16T04:53:04;15.70;91.40
23301;DHT22;11819;51.394;12.340;2022-10-16T04:55:30;15.70;91.40
23301;DHT22;11819;51.394;12.340;2022-10-16T04:57:56;15.70;91.40
23301;DHT22;11819;51.394;12.340;2022-10-16T05:00:21;15.70;91.40
23301;DHT22;11819;51.394;12.340;2022-10-16T05:02:49;15.70;91.50
23301;DHT22;11819;51.394;12.340;2022-10-16T05:05:15;15.70;91.50
23301;DHT22;11819;51.394;12.340;2022-10-16T05:07:40;15.70;91.60
23301;DHT22;11819;51.394;12.340;2022-10-16T05:10:06;15.70;91.60
23301;DHT22;11819;51.394;12.340;2022-10-16T05:12:33;15.70;91.60
23301;DHT22;11819;51.394;12.340;2022-10-16T05:14:59;15.60;91.70
23301;DHT22;11819;51.394;12.340;2022-10-16T05:17:25;15.60;91.70
23301;DHT22;11819;51.394;12.340;2022-10-16T05:19:51;15.60;91.80
23301;DHT22;11819;51.394;12.340;2022-10-16T05:22:17;15.70;91.90
23301;DHT22;11819;51.394;12.340;2022-10-16T05:24:42;15.70;91.90
23301;DHT22;11819;51.394;12.340;2022-10-16T05:27:08;15.60;91.90
23301;DHT22;11819;51.394;12.340;2022-10-16T05:29:34;15.60;92.00
23301;DHT22;11819;51.394;12.340;2022-10-16T05:32:00;15.60;92.00
23301;DHT22;11819;51.394;12.340;2022-10-16T05:34:26;15.70;92.10
23301;DHT22;11819;51.394;12.340;2022-10-16T05:36:51;15.70;92.10
23301;DHT22;11819;51.394;12.340;2022-10-16T05:39:17;15.70;92.10
23301;DHT22;11819;51.394;12.340;2022-10-16T05:41:43;15.70;92.10
23301;DHT22;11819;51.394;12.340;2022-10-16T05:44:09;15.70;92.10
23301;DHT22;11819;51.394;12.340;2022-10-16T05:46:35;15.70;92.10
23301;DHT22;11819;51.394;12.340;2022-10-16T05:49:00;15.70;92.00
23301;DHT22;11819;51.394;12.340;2022-10-16T05:51:26;15.70;92.10
23301;DHT22;11819;51.394;12.340;2022-10-16T05:53:52;15.70;92.00
23301;DHT22;11819;51.394;12.340;2022-10-16T05:56:18;15.70;92.00
23301;DHT22;11819;51.394;12.340;2022-10-16T05:58:44;15.70;92.10
23301;DHT22;11819;51.394;12.340;2022-10-16T06:01:18;15.60;92.00
23301;DHT22;11819;51.394;12.340;2022-10-16T06:03:44;15.60;92.00
23301;DHT22;11819;51.394;12.340;2022-10-16T06:06:12;15.60;92.00
23301;DHT22;11819;51.394;12.340;2022-10-16T06:08:39;15.60;92.10
23301;DHT22;11819;51.394;12.340;2022-10-16T06:11:07;15.60;92.00
23301;DHT22;11819;51.394;12.340;2022-10-16T06:13:33;15.70;92.10
23301;DHT22;11819;51.394;12.340;2022-10-16T06:16:00;15.70;92.10
23301;DHT22;11819;51.394;12.340;2022-10-16T06:18:27;15.70;92.10
23301;DHT22;11819;51.394;12.340;2022-10-16T06:20:53;15.70;92.10
23301;DHT22;11819;51.394;12.340;2022-10-16T06:23:21;15.70;92.10
23301;DHT22;11819;51.394;12.340;2022-10-16T06:25:47;15.70;92.10
23301;DHT22;11819;51.394;12.340;2022-10-16T06:28:14;15.80;92.10
23301;DHT22;11819;51.394;12.340;2022-10-16T06:30:40;15.80;92.10
23301;DHT22;11819;51.394;12.340;2022-10-16T06:33:06;15.80;92.10
23301;DHT22;11819;51.394;12.340;2022-10-16T06:35:32;15.80;92.10
23301;DHT22;11819;51.394;12.340;2022-10-16T06:37:58;15.80;92.10
23301;DHT22;11819;51.394;12.340;2022-10-16T06:40:24;15.90;92.10
23301;DHT22;11819;51.394;12.340;2022-10-16T06:42:49;15.90;92.20
23301;DHT22;11819;51.394;12.340;2022-10-16T06:45:17;15.90;92.20
23301;DHT22;11819;51.394;12.340;2022-10-16T06:47:43;15.90;92.20
23301;DHT22;11819;51.394;12.340;2022-10-16T06:50:08;16.00;92.20
23301;DHT22;11819;51.394;12.340;2022-10-16T06:52:34;16.00;92.20
23301;DHT22;11819;51.394;12.340;2022-10-16T06:55:00;16.00;92.10
23301;DHT22;11819;51.394;12.340;2022-10-16T06:57:26;16.10;92.10
23301;DHT22;11819;51.394;12.340;2022-10-16T06:59:52;16.10;92.10
23301;DHT22;11819;51.394;12.340;2022-10-16T07:02:18;16.10;92.00
23301;DHT22;11819;51.394;12.340;2022-10-16T07:04:44;16.10;92.00
23301;DHT22;11819;51.394;12.340;2022-10-16T07:07:09;16.10;91.90
23301;DHT22;11819;51.394;12.340;2022-10-16T07:09:35;16.10;92.00
23301;DHT22;11819;51.394;12.340;2022-10-16T07:12:01;16.10;92.00
23301;DHT22;11819;51.394;12.340;2022-10-16T07:14:27;16.10;92.00
23301;DHT22;11819;51.394;12.340;2022-10-16T07:16:53;16.20;92.10
23301;DHT22;11819;51.394;12.340;2022-10-16T07:19:18;16.20;92.20
23301;DHT22;11819;51.394;12.340;2022-10-16T07:21:44;16.20;92.20
23301;DHT22;11819;51.394;12.340;2022-10-16T07:24:15;16.20;92.20
23301;DHT22;11819;51.394;12.340;2022-10-16T07:26:44;16.30;92.30
23301;DHT22;11819;51.394;12.340;2022-10-16T07:29:15;16.30;92.30
23301;DHT22;11819;51.394;12.340;2022-10-16T07:31:42;16.30;92.40
23301;DHT22;11819;51.394;12.340;2022-10-16T07:34:08;16.30;92.50
23301;DHT22;11819;51.394;12.340;2022-10-16T07:36:34;16.30;92.50
23301;DHT22;11819;51.394;12.340;2022-10-16T07:39:00;16.30;92.60
23301;DHT22;11819;51.394;12.340;2022-10-16T07:41:26;16.30;92.60
23301;DHT22;11819;51.394;12.340;2022-10-16T07:43:52;16.30;92.60
23301;DHT22;11819;51.394;12.340;2022-10-16T07:46:20;16.30;92.70
23301;DHT22;11819;51.394;12.340;2022-10-16T07:48:46;16.40;92.70
23301;DHT22;11819;51.394;12.340;2022-10-16T07:51:24;16.30;92.80
23301;DHT22;11819;51.394;12.340;2022-10-16T07:53:50;16.40;92.80
23301;DHT22;11819;51.394;12.340;2022-10-16T07:56:17;16.40;92.90
23301;DHT22;11819;51.394;12.340;2022-10-16T07:58:43;16.50;92.90
23301;DHT22;11819;51.394;12.340;2022-10-16T08:01:12;16.50;93.00
23301;DHT22;11819;51.394;12.340;2022-10-16T08:03:41;16.50;93.00
23301;DHT22;11819;51.394;12.340;2022-10-16T08:06:07;16.60;93.00
23301;DHT22;11819;51.394;12.340;2022-10-16T08:08:32;16.60;93.00
23301;DHT22;11819;51.394;12.340;2022-10-16T08:10:59;16.70;93.10
23301;DHT22;11819;51.394;12.340;2022-10-16T08:13:25;16.70;93.20
23301;DHT22;11819;51.394;12.340;2022-10-16T08:15:53;16.80;93.20
23301;DHT22;11819;51.394;12.340;2022-10-16T08:18:19;16.90;93.20
23301;DHT22;11819;51.394;12.340;2022-10-16T08:20:44;16.90;93.30
23301;DHT22;11819;51.394;12.340;2022-10-16T08:23:13;17.10;93.40
23301;DHT22;11819;51.394;12.340;2022-10-16T08:25:40;17.10;93.30
23301;DHT22;11819;51.394;12.340;2022-10-16T08:28:07;17.20;93.30
23301;DHT22;11819;51.394;12.340;2022-10-16T08:30:33;17.30;93.20
23301;DHT22;11819;51.394;12.340;2022-10-16T08:32:59;17.40;93.10
23301;DHT22;11819;51.394;12.340;2022-10-16T08:35:25;17.40;92.90
23301;DHT22;11819;51.394;12.340;2022-10-16T08:37:50;17.50;92.80
23301;DHT22;11819;51.394;12.340;2022-10-16T08:40:23;17.50;92.70
23301;DHT22;11819;51.394;12.340;2022-10-16T08:50:44;17.80;92.10
23301;DHT22;11819;51.394;12.340;2022-10-16T08:53:16;17.80;92.00
23301;DHT22;11819;51.394;12.340;2022-10-16T08:55:46;17.90;91.80
23301;DHT22;11819;51.394;12.340;2022-10-16T08:58:16;17.90;91.70
23301;DHT22;11819;51.394;12.340;2022-10-16T09:00:45;17.90;91.60
23301;DHT22;11819;51.394;12.340;2022-10-16T09:03:33;17.90;91.60
23301;DHT22;11819;51.394;12.340;2022-10-16T09:23:19;18.30;90.60
23301;DHT22;11819;51.394;12.340;2022-10-16T09:25:47;18.40;90.40
23301;DHT22;11819;51.394;12.340;2022-10-16T09:28:16;18.40;90.10
23301;DHT22;11819;51.394;12.340;2022-10-16T09:30:42;18.50;90.00
23301;DHT22;11819;51.394;12.340;2022-10-16T09:33:10;18.50;89.90
23301;DHT22;11819;51.394;12.340;2022-10-16T09:35:43;18.50;89.70
23301;DHT22;11819;51.394;12.340;2022-10-16T09:38:20;18.50;89.40
23301;DHT22;11819;51.394;12.340;2022-10-16T09:40:46;18.50;89.10
23301;DHT22;11819;51.394;12.340;2022-10-16T09:43:57;18.50;89.00
23301;DHT22;11819;51.394;12.340;2022-10-16T09:46:32;18.50;88.90
23301;DHT22;11819;51.394;12.340;2022-10-16T09:49:22;18.50;89.00
23301;DHT22;11819;51.394;12.340;2022-10-16T09:51:49;18.50;88.90
23301;DHT22;11819;51.394;12.340;2022-10-16T09:54:18;18.60;88.70
23301;DHT22;11819;51.394;12.340;2022-10-16T09:56:44;18.60;88.60
23301;DHT22;11819;51.394;12.340;2022-10-16T09:59:19;18.70;88.50
23301;DHT22;11819;51.394;12.340;2022-10-16T10:01:50;18.70;88.30
23301;DHT22;11819;51.394;12.340;2022-10-16T10:04:17;18.80;88.10
23301;DHT22;11819;51.394;12.340;2022-10-16T10:06:48;18.80;87.80
23301;DHT22;11819;51.394;12.340;2022-10-16T10:09:26;18.80;87.50
23301;DHT22;11819;51.394;12.340;2022-10-16T10:14:22;18.80;87.40
23301;DHT22;11819;51.394;12.340;2022-10-16T10:16:49;18.80;87.40
23301;DHT22;11819;51.394;12.340;2022-10-16T10:19:17;18.90;88.30
23301;DHT22;11819;51.394;12.340;2022-10-16T10:21:44;18.90;87.50
23301;DHT22;11819;51.394;12.340;2022-10-16T10:24:16;19.00;87.30
23301;DHT22;11819;51.394;12.340;2022-10-16T10:26:56;19.00;86.80
23301;DHT22;11819;51.394;12.340;2022-10-16T10:46:16;19.20;86.00
23301;DHT22;11819;51.394;12.340;2022-10-16T10:54:15;19.20;86.10
23301;DHT22;11819;51.394;12.340;2022-10-16T10:56:56;19.20;86.10
23301;DHT22;11819;51.394;12.340;2022-10-16T11:02:28;19.20;86.00
23301;DHT22;11819;51.394;12.340;2022-10-16T11:05:22;19.20;85.90
23301;DHT22;11819;51.394;12.340;2022-10-16T11:08:00;19.20;85.90
23301;DHT22;11819;51.394;12.340;2022-10-16T11:10:30;19.20;85.90
23301;DHT22;11819;51.394;12.340;2022-10-16T11:13:47;19.20;85.80
23301;DHT22;11819;51.394;12.340;2022-10-16T11:15:48;19.20;85.80
23301;DHT22;11819;51.394;12.340;2022-10-16T11:18:22;19.20;85.80
23301;DHT22;11819;51.394;12.340;2022-10-16T11:21:04;19.20;85.80
23301;DHT22;11819;51.394;12.340;2022-10-16T11:23:56;19.20;85.60
23301;DHT22;11819;51.394;12.340;2022-10-16T11:26:27;19.20;85.70
23301;DHT22;11819;51.394;12.340;2022-10-16T11:28:56;19.30;85.70
23301;DHT22;11819;51.394;12.340;2022-10-16T11:36:42;19.40;85.70
23301;DHT22;11819;51.394;12.340;2022-10-16T11:47:35;19.40;85.20
23301;DHT22;11819;51.394;12.340;2022-10-16T11:50:35;19.40;85.10
23301;DHT22;11819;51.394;12.340;2022-10-16T11:55:45;19.40;85.00
23301;DHT22;11819;51.394;12.340;2022-10-16T11:58:41;19.40;85.00
23301;DHT22;11819;51.394;12.340;2022-10-16T12:01:35;19.40;85.00
23301;DHT22;11819;51.394;12.340;2022-10-16T12:07:09;19.40;85.10
23301;DHT22;11819;51.394;12.340;2022-10-16T12:09:38;19.40;85.10
23301;DHT22;11819;51.394;12.340;2022-10-16T12:12:04;19.50;85.20
23301;DHT22;11819;51.394;12.340;2022-10-16T12:14:36;19.50;85.00
23301;DHT22;11819;51.394;12.340;2022-10-16T12:22:55;19.50;84.80
23301;DHT22;11819;51.394;12.340;2022-10-16T12:25:30;19.50;84.80
23301;DHT22;11819;51.394;12.340;2022-10-16T12:28:21;19.50;84.90
23301;DHT22;11819;51.394;12.340;2022-10-16T12:30:57;19.50;84.90
23301;DHT22;11819;51.394;12.340;2022-10-16T12:33:26;19.50;84.90
23301;DHT22;11819;51.394;12.340;2022-10-16T12:35:53;19.50;84.90
23301;DHT22;11819;51.394;12.340;2022-10-16T12:41:24;19.60;84.90
23301;DHT22;11819;51.394;12.340;2022-10-16T12:43:50;19.60;84.70
23301;DHT22;11819;51.394;12.340;2022-10-16T12:48:43;19.60;84.50
23301;DHT22;11819;51.394;12.340;2022-10-16T12:51:33;19.70;84.40
23301;DHT22;11819;51.394;12.340;2022-10-16T12:54:11;19.70;84.10
23301;DHT22;11819;51.394;12.340;2022-10-16T12:56:57;19.60;83.70
23301;DHT22;11819;51.394;12.340;2022-10-16T13:02:28;19.80;85.40
23301;DHT22;11819;51.394;12.340;2022-10-16T13:10:35;20.40;83.80
23301;DHT22;11819;51.394;12.340;2022-10-16T13:21:09;22.00;80.50
23301;DHT22;11819;51.394;12.340;2022-10-16T13:23:50;22.40;80.30
23301;DHT22;11819;51.394;12.340;2022-10-16T13:26:29;22.80;78.30
23301;DHT22;11819;51.394;12.340;2022-10-16T13:29:01;23.10;76.00
23301;DHT22;11819;51.394;12.340;2022-10-16T13:31:28;23.30;74.40
23301;DHT22;11819;51.394;12.340;2022-10-16T13:33:57;23.50;73.60
23301;DHT22;11819;51.394;12.340;2022-10-16T13:36:28;23.60;73.00
23301;DHT22;11819;51.394;12.340;2022-10-16T13:39:11;23.90;72.90
23301;DHT22;11819;51.394;12.340;2022-10-16T13:41:37;24.10;71.10
23301;DHT22;11819;51.394;12.340;2022-10-16T13:44:04;24.10;69.80
23301;DHT22;11819;51.394;12.340;2022-10-16T13:46:30;24.00;70.00
23301;DHT22;11819;51.394;12.340;2022-10-16T13:49:04;23.90;69.30
23301;DHT22;11819;51.394;12.340;2022-10-16T13:51:32;23.80;69.10
23301;DHT22;11819;51.394;12.340;2022-10-16T13:53:58;23.70;69.10
23301;DHT22;11819;51.394;12.340;2022-10-16T13:56:32;23.60;69.10
23301;DHT22;11819;51.394;12.340;2022-10-16T13:59:03;23.40;68.90
23301;DHT22;11819;51.394;12.340;2022-10-16T14:01:35;23.10;69.70
23301;DHT22;11819;51.394;12.340;2022-10-16T14:04:08;22.80;68.90
23301;DHT22;11819;51.394;12.340;2022-10-16T14:06:35;22.50;69.70
23301;DHT22;11819;51.394;12.340;2022-10-16T14:09:08;22.30;70.80
23301;DHT22;11819;51.394;12.340;2022-10-16T14:11:44;22.00;70.50
23301;DHT22;11819;51.394;12.340;2022-10-16T14:14:12;21.80;71.10
23301;DHT22;11819;51.394;12.340;2022-10-16T14:16:40;21.60;71.60
23301;DHT22;11819;51.394;12.340;2022-10-16T14:19:13;21.40;72.10
23301;DHT22;11819;51.394;12.340;2022-10-16T14:21:40;21.20;72.70
23301;DHT22;11819;51.394;12.340;2022-10-16T14:24:13;21.10;73.30
23301;DHT22;11819;51.394;12.340;2022-10-16T14:26:43;21.10;73.80
23301;DHT22;11819;51.394;12.340;2022-10-16T14:29:18;21.00;74.10
23301;DHT22;11819;51.394;12.340;2022-10-16T14:32:02;20.90;74.40
23301;DHT22;11819;51.394;12.340;2022-10-16T14:34:36;20.90;74.80
23301;DHT22;11819;51.394;12.340;2022-10-16T14:37:29;20.80;75.10
23301;DHT22;11819;51.394;12.340;2022-10-16T14:39:55;20.80;75.30
23301;DHT22;11819;51.394;12.340;2022-10-16T14:42:23;20.70;75.50
23301;DHT22;11819;51.394;12.340;2022-10-16T14:44:51;20.70;75.70
23301;DHT22;11819;51.394;12.340;2022-10-16T14:47:22;20.70;75.80
23301;DHT22;11819;51.394;12.340;2022-10-16T14:49:52;20.70;76.00
23301;DHT22;11819;51.394;12.340;2022-10-16T14:52:20;20.70;76.20
23301;DHT22;11819;51.394;12.340;2022-10-16T14:54:49;20.70;76.50
23301;DHT22;11819;51.394;12.340;2022-10-16T14:57:20;20.70;76.70
23301;DHT22;11819;51.394;12.340;2022-10-16T14:59:47;20.70;76.80
23301;DHT22;11819;51.394;12.340;2022-10-16T15:02:31;20.70;76.70
23301;DHT22;11819;51.394;12.340;2022-10-16T15:04:58;20.80;76.80
23301;DHT22;11819;51.394;12.340;2022-10-16T15:07:27;20.70;76.70
23301;DHT22;11819;51.394;12.340;2022-10-16T15:09:53;20.70;76.80
23301;DHT22;11819;51.394;12.340;2022-10-16T15:12:19;20.70;77.00
23301;DHT22;11819;51.394;12.340;2022-10-16T15:14:45;20.60;77.00
23301;DHT22;11819;51.394;12.340;2022-10-16T15:17:11;20.60;77.10
23301;DHT22;11819;51.394;12.340;2022-10-16T15:19:37;20.60;77.20
23301;DHT22;11819;51.394;12.340;2022-10-16T15:22:02;20.60;77.30
23301;DHT22;11819;51.394;12.340;2022-10-16T15:24:28;20.50;77.20
23301;DHT22;11819;51.394;12.340;2022-10-16T15:26:54;20.50;77.40
23301;DHT22;11819;51.394;12.340;2022-10-16T15:29:19;20.40;77.40
23301;DHT22;11819;51.394;12.340;2022-10-16T15:31:45;20.40;77.60
23301;DHT22;11819;51.394;12.340;2022-10-16T15:34:13;20.30;77.70
23301;DHT22;11819;51.394;12.340;2022-10-16T15:36:39;20.30;77.80
23301;DHT22;11819;51.394;12.340;2022-10-16T15:39:11;20.20;77.90
23301;DHT22;11819;51.394;12.340;2022-10-16T15:41:37;20.20;78.10
23301;DHT22;11819;51.394;12.340;2022-10-16T15:44:03;20.10;78.20
23301;DHT22;11819;51.394;12.340;2022-10-16T15:46:29;20.10;78.40
23301;DHT22;11819;51.394;12.340;2022-10-16T15:48:57;20.10;78.70
23301;DHT22;11819;51.394;12.340;2022-10-16T15:51:23;20.00;78.90
23301;DHT22;11819;51.394;12.340;2022-10-16T15:53:49;19.90;79.00
23301;DHT22;11819;51.394;12.340;2022-10-16T15:56:17;19.90;79.30
23301;DHT22;11819;51.394;12.340;2022-10-16T15:58:43;19.90;79.50
23301;DHT22;11819;51.394;12.340;2022-10-16T16:01:09;19.90;79.80
23301;DHT22;11819;51.394;12.340;2022-10-16T16:03:37;19.90;79.90
23301;DHT22;11819;51.394;12.340;2022-10-16T16:06:07;19.90;79.90
23301;DHT22;11819;51.394;12.340;2022-10-16T16:08:33;19.90;80.00
23301;DHT22;11819;51.394;12.340;2022-10-16T16:11:00;19.80;80.00
23301;DHT22;11819;51.394;12.340;2022-10-16T16:13:26;19.80;80.20
23301;DHT22;11819;51.394;12.340;2022-10-16T16:15:52;19.70;80.20
23301;DHT22;11819;51.394;12.340;2022-10-16T16:18:17;19.70;80.40
23301;DHT22;11819;51.394;12.340;2022-10-16T16:20:43;19.60;80.60
23301;DHT22;11819;51.394;12.340;2022-10-16T16:23:09;19.60;80.80
23301;DHT22;11819;51.394;12.340;2022-10-16T16:25:34;19.50;81.00
23301;DHT22;11819;51.394;12.340;2022-10-16T16:28:00;19.50;81.20
23301;DHT22;11819;51.394;12.340;2022-10-16T16:30:26;19.40;81.30
23301;DHT22;11819;51.394;12.340;2022-10-16T16:32:51;19.40;81.30
23301;DHT22;11819;51.394;12.340;2022-10-16T16:35:17;19.30;81.40
23301;DHT22;11819;51.394;12.340;2022-10-16T16:37:43;19.30;81.60
23301;DHT22;11819;51.394;12.340;2022-10-16T16:40:08;19.20;81.60
23301;DHT22;11819;51.394;12.340;2022-10-16T16:42:34;19.10;81.70
23301;DHT22;11819;51.394;12.340;2022-10-16T16:45:00;19.10;81.80
23301;DHT22;11819;51.394;12.340;2022-10-16T16:47:25;19.00;81.90
23301;DHT22;11819;51.394;12.340;2022-10-16T16:49:51;18.90;82.00
23301;DHT22;11819;51.394;12.340;2022-10-16T16:52:17;18.90;82.20
23301;DHT22;11819;51.394;12.340;2022-10-16T16:54:43;18.80;82.30
23301;DHT22;11819;51.394;12.340;2022-10-16T16:57:11;18.70;82.50
23301;DHT22;11819;51.394;12.340;2022-10-16T16:59:37;18.70;82.70
23301;DHT22;11819;51.394;12.340;2022-10-16T17:02:02;18.70;82.90
23301;DHT22;11819;51.394;12.340;2022-10-16T17:04:28;18.60;83.00
23301;DHT22;11819;51.394;12.340;2022-10-16T17:06:55;18.60;83.20
23301;DHT22;11819;51.394;12.340;2022-10-16T17:09:21;18.60;83.40
23301;DHT22;11819;51.394;12.340;2022-10-16T17:11:47;18.50;83.50
23301;DHT22;11819;51.394;12.340;2022-10-16T17:14:14;18.50;83.60
23301;DHT22;11819;51.394;12.340;2022-10-16T17:16:40;18.50;83.80
23301;DHT22;11819;51.394;12.340;2022-10-16T17:19:13;18.50;83.90
23301;DHT22;11819;51.394;12.340;2022-10-16T17:21:39;18.50;84.00
23301;DHT22;11819;51.394;12.340;2022-10-16T17:24:05;18.40;84.10
23301;DHT22;11819;51.394;12.340;2022-10-16T17:26:31;18.40;84.30